createdAt,value
2023-01-26T00:00:09.216Z,103218.56
2023-01-26T00:02:58.700Z,103239.59
2023-01-26T00:05:49.470Z,103226.91
2023-01-26T00:08:39.741Z,103227.63
2023-01-26T00:11:30.643Z,103230.59
2023-01-26T00:14:19.932Z,103244.34
2023-01-26T00:17:09.144Z,103237.47
2023-01-26T00:19:59.691Z,103226.06
2023-01-26T00:22:50.299Z,103227.97
2023-01-26T00:25:41.307Z,103214.59
2023-01-26T00:28:30.810Z,103218.81
2023-01-26T00:31:22.729Z,103229.03
2023-01-26T00:34:11.913Z,103229.47
2023-01-26T00:37:04.303Z,103229.09
2023-01-26T00:39:54.843Z,103220.13
2023-01-26T00:42:46.288Z,103218.44
2023-01-26T00:45:36.718Z,103206.09
2023-01-26T00:48:27.799Z,103222.59
2023-01-26T00:51:17.048Z,103212.19
2023-01-26T00:54:06.277Z,103190.41
2023-01-26T00:56:57.548Z,103187.28
2023-01-26T00:59:46.729Z,103171.19
2023-01-26T01:02:36.024Z,103177.31
2023-01-26T01:05:25.761Z,103181.56
2023-01-26T01:08:15.282Z,103186.53
2023-01-26T01:11:07.633Z,103185.19
2023-01-26T01:13:58.315Z,103206.22
2023-01-26T01:16:47.578Z,103202.66
2023-01-26T01:19:36.855Z,103193.63
2023-01-26T01:22:26.172Z,103191.97
2023-01-26T01:25:15.660Z,103193.53
2023-01-26T01:28:05.002Z,103195.84
2023-01-26T01:30:55.606Z,103197.75
2023-01-26T01:33:45.393Z,103194.50
2023-01-26T01:36:34.804Z,103200.78
2023-01-26T01:39:24.431Z,103205.75
2023-01-26T01:42:13.671Z,103198.06
2023-01-26T01:45:43.183Z,103201.72
2023-01-26T01:48:44.292Z,103201.72
2023-01-26T01:51:38.713Z,103195.94
2023-01-26T01:54:33.672Z,103193.56
2023-01-26T01:57:28.808Z,103172.81
2023-01-26T02:00:22.538Z,103183.06
2023-01-26T02:03:14.792Z,103198.81
2023-01-26T02:06:10.515Z,103190.41
2023-01-26T02:09:00.210Z,103194.09
2023-01-26T02:11:49.512Z,103205.75
2023-01-26T02:14:39.467Z,103206.22
2023-01-26T02:17:28.761Z,103180.22
2023-01-26T02:20:28.670Z,103190.78
2023-01-26T02:23:32.456Z,103206.81
2023-01-26T02:26:26.163Z,103197.00
2023-01-26T02:29:15.722Z,103210.28
2023-01-26T02:32:06.868Z,103201.97
2023-01-26T02:34:58.585Z,103208.31
2023-01-26T02:37:47.888Z,103208.47
2023-01-26T02:40:44.758Z,103215.09
2023-01-26T02:43:34.979Z,103210.28
2023-01-26T02:46:26.295Z,103214.06
2023-01-26T02:49:32.756Z,103209.44
2023-01-26T02:52:26.520Z,103202.44
2023-01-26T02:55:35.990Z,103200.53
2023-01-26T02:58:25.291Z,103186.78
2023-01-26T03:01:16.589Z,103193.19
2023-01-26T03:04:09.807Z,103187.84
2023-01-26T03:06:59.035Z,103203.63
2023-01-26T03:09:48.354Z,103210.72
2023-01-26T03:12:37.746Z,103219.59
2023-01-26T03:15:43.060Z,103214.97
2023-01-26T03:18:54.357Z,103207.25
2023-01-26T03:22:03.285Z,103209.31
2023-01-26T03:25:09.627Z,103202.56
2023-01-26T03:27:59.181Z,103205.91
2023-01-26T03:30:48.423Z,103216.31
2023-01-26T03:33:39.800Z,103220.78
2023-01-26T03:36:29.087Z,103220.19
2023-01-26T03:39:32.521Z,103229.69
2023-01-26T03:42:39.751Z,103226.38
2023-01-26T03:45:46.124Z,103226.16
2023-01-26T03:48:52.526Z,103231.59
2023-01-26T03:52:00.628Z,103218.31
2023-01-26T03:55:07.146Z,103216.91
2023-01-26T03:57:56.420Z,103215.03
2023-01-26T04:00:45.608Z,103220.84
2023-01-26T04:03:52.038Z,103213.28
2023-01-26T04:07:04.147Z,103203.44
2023-01-26T04:09:54.360Z,103198.31
2023-01-26T04:12:43.691Z,103207.59
2023-01-26T04:16:08.623Z,103220.16
2023-01-26T04:19:15.819Z,103222.44
2023-01-26T04:22:06.573Z,103216.16
2023-01-26T04:24:58.283Z,103215.09
2023-01-26T04:27:47.949Z,103212.13
2023-01-26T04:30:37.682Z,103217.09
2023-01-26T04:33:27.144Z,103211.91
2023-01-26T04:36:16.444Z,103212.97
2023-01-26T04:39:11.342Z,103220.97
2023-01-26T04:42:04.663Z,103224.91
2023-01-26T04:44:54.092Z,103230.97
2023-01-26T04:47:44.209Z,103238.31
2023-01-26T04:50:34.514Z,103234.75
2023-01-26T04:53:24.101Z,103230.59
2023-01-26T04:56:23.857Z,103231.28
2023-01-26T04:59:15.806Z,103236.22
2023-01-26T05:02:05.996Z,103238.41
2023-01-26T05:04:55.416Z,103247.06
2023-01-26T05:07:44.700Z,103246.97
2023-01-26T05:10:36.512Z,103241.66
2023-01-26T05:13:47.322Z,103248.41
2023-01-26T05:16:46.212Z,103257.88
2023-01-26T05:19:49.106Z,103259.38
2023-01-26T05:22:54.018Z,103243.97
2023-01-26T05:25:45.994Z,103237.69
2023-01-26T05:28:37.097Z,103222.34
2023-01-26T05:31:28.116Z,103238.59
2023-01-26T05:34:17.888Z,103240.06
2023-01-26T05:37:07.256Z,103247.03
2023-01-26T05:39:59.596Z,103241.25
2023-01-26T05:42:49.213Z,103246.03
2023-01-26T05:46:10.761Z,103249.06
2023-01-26T05:49:06.093Z,103242.38
2023-01-26T05:51:55.722Z,103240.25
2023-01-26T05:54:46.237Z,103240.84
2023-01-26T05:57:36.457Z,103254.56
2023-01-26T06:00:28.210Z,103251.00
2023-01-26T06:03:25.211Z,103254.00
2023-01-26T06:06:15.865Z,103249.56
2023-01-26T06:09:12.603Z,103252.72
2023-01-26T06:12:21.075Z,103258.31
2023-01-26T06:15:36.851Z,103259.91
2023-01-26T06:18:26.283Z,103271.25
2023-01-26T06:21:19.030Z,103268.31
2023-01-26T06:24:09.274Z,103270.94
2023-01-26T06:26:58.673Z,103266.94
2023-01-26T06:29:48.682Z,103260.88
2023-01-26T06:32:38.710Z,103264.00
2023-01-26T06:35:29.210Z,103268.97
2023-01-26T06:38:23.378Z,103273.81
2023-01-26T06:41:12.815Z,103270.03
2023-01-26T06:44:02.070Z,103267.91
2023-01-26T06:46:51.806Z,103257.47
2023-01-26T06:49:41.390Z,103265.19
2023-01-26T06:52:33.991Z,103257.25
2023-01-26T06:55:41.996Z,103270.63
2023-01-26T06:58:50.760Z,103272.09
2023-01-26T07:01:57.436Z,103269.44
2023-01-26T07:04:47.205Z,103288.34
2023-01-26T07:07:36.639Z,103288.78
2023-01-26T07:10:25.827Z,103300.28
2023-01-26T07:13:16.439Z,103303.59
2023-01-26T07:16:08.251Z,103298.31
2023-01-26T07:18:57.665Z,103307.75
2023-01-26T07:21:46.900Z,103305.88
2023-01-26T07:24:36.161Z,103301.19
2023-01-26T07:27:25.463Z,103300.72
2023-01-26T07:30:17.445Z,103299.47
2023-01-26T07:33:06.600Z,103311.84
2023-01-26T07:35:56.228Z,103303.38
2023-01-26T07:38:45.510Z,103300.41
2023-01-26T07:41:34.727Z,103303.13
2023-01-26T07:44:30.499Z,103316.72
2023-01-26T07:47:21.195Z,103309.84
2023-01-26T07:50:13.241Z,103295.78
2023-01-26T07:53:02.711Z,103297.13
2023-01-26T07:55:51.844Z,103308.97
2023-01-26T07:58:41.430Z,103300.66
2023-01-26T08:01:30.638Z,103299.88
2023-01-26T08:04:21.317Z,103309.25
2023-01-26T08:07:10.560Z,103305.31
2023-01-26T08:10:00.433Z,103297.34
2023-01-26T08:12:49.769Z,103303.75
2023-01-26T08:15:39.098Z,103305.41
2023-01-26T08:18:28.484Z,103293.63
2023-01-26T08:21:20.649Z,103293.56
2023-01-26T08:24:12.692Z,103305.28
2023-01-26T08:27:02.036Z,103302.94
2023-01-26T08:29:51.646Z,103302.56
2023-01-26T08:32:41.342Z,103244.47
2023-01-26T08:35:30.638Z,103294.06
2023-01-26T08:38:21.594Z,103299.44
2023-01-26T08:41:11.785Z,103317.34
2023-01-26T08:44:01.119Z,103271.00
2023-01-26T08:46:50.368Z,103274.91
2023-01-26T08:49:39.682Z,103327.41
2023-01-26T08:52:30.615Z,103319.94
2023-01-26T08:55:21.673Z,103297.78
2023-01-26T08:58:10.967Z,103316.94
2023-01-26T09:01:00.397Z,103316.47
2023-01-26T09:03:51.422Z,103302.38
2023-01-26T09:06:40.882Z,103313.44
2023-01-26T09:09:30.212Z,103321.09
2023-01-26T09:12:21.316Z,103332.16
2023-01-26T09:15:11.864Z,103335.84
2023-01-26T09:18:01.345Z,103309.16
2023-01-26T09:20:51.522Z,103316.38
2023-01-26T09:23:40.996Z,103323.84
2023-01-26T09:26:31.555Z,103330.06
2023-01-26T09:29:22.434Z,103345.56
2023-01-26T09:32:11.759Z,103335.38
2023-01-26T09:35:01.785Z,103334.09
2023-01-26T09:37:51.136Z,103335.91
2023-01-26T09:40:53.887Z,103343.25
2023-01-26T09:43:48.303Z,103354.66
2023-01-26T09:46:56.974Z,103338.94
2023-01-26T09:49:51.825Z,103349.69
2023-01-26T09:52:51.547Z,103355.06
2023-01-26T09:55:42.926Z,103366.66
2023-01-26T09:58:38.867Z,103358.03
2023-01-26T10:01:37.593Z,103361.13
2023-01-26T10:04:37.139Z,103348.78
2023-01-26T10:07:26.593Z,103362.16
2023-01-26T10:10:25.635Z,103354.59
2023-01-26T10:13:18.068Z,103366.97
2023-01-26T10:16:11.593Z,103365.81
2023-01-26T10:19:05.502Z,103367.16
2023-01-26T10:22:01.080Z,103362.75
2023-01-26T10:24:53.277Z,103380.84
2023-01-26T10:27:43.167Z,103374.56
2023-01-26T10:30:32.478Z,103373.75
2023-01-26T10:33:29.021Z,103360.91
2023-01-26T10:36:18.612Z,103382.91
2023-01-26T10:39:11.180Z,103364.00
2023-01-26T10:42:02.499Z,103389.66
2023-01-26T10:44:52.743Z,103396.44
2023-01-26T10:47:42.055Z,103393.47
2023-01-26T10:50:32.243Z,103395.50
2023-01-26T10:53:28.390Z,103388.66
2023-01-26T10:56:20.655Z,103401.81
2023-01-26T10:59:10.800Z,103390.06
2023-01-26T11:02:04.457Z,103394.00
2023-01-26T11:05:23.661Z,103396.94
2023-01-26T11:08:34.659Z,103392.69
2023-01-26T11:11:28.576Z,103388.91
2023-01-26T11:14:20.285Z,103393.19
2023-01-26T11:17:20.893Z,103400.44
2023-01-26T11:20:52.095Z,103400.44
2023-01-26T11:24:05.135Z,103415.50
2023-01-26T11:27:24.511Z,103410.41
2023-01-26T11:30:35.123Z,103406.97
2023-01-26T11:33:35.552Z,103409.34
2023-01-26T11:36:39.361Z,103409.69
2023-01-26T11:39:36.892Z,103407.91
2023-01-26T11:42:39.941Z,103407.56
2023-01-26T11:45:34.702Z,103402.00
2023-01-26T11:48:35.340Z,103400.44
2023-01-26T11:51:45.335Z,103377.97
2023-01-26T11:54:55.242Z,103384.16
2023-01-26T11:58:03.127Z,103381.22
2023-01-26T12:00:57.713Z,103370.50
2023-01-26T12:03:49.903Z,103358.16
2023-01-26T12:06:43.901Z,103371.34
2023-01-26T12:09:42.326Z,103372.75
2023-01-26T12:12:38.762Z,103366.97
2023-01-26T12:15:35.704Z,103362.22
2023-01-26T12:18:46.963Z,103357.22
2023-01-26T12:21:46.343Z,103363.59
2023-01-26T12:28:00.199Z,103352.06
2023-01-26T12:31:02.397Z,103356.09
2023-01-26T12:33:55.851Z,103353.13
2023-01-26T12:36:54.423Z,103363.19
2023-01-26T12:39:48.750Z,103354.88
2023-01-26T12:42:46.419Z,103355.88
2023-01-26T12:45:40.533Z,103347.31
2023-01-26T12:48:41.399Z,103332.94
2023-01-26T12:51:35.310Z,103344.88
2023-01-26T12:54:35.721Z,103343.34
2023-01-26T12:57:31.886Z,103317.53
2023-01-26T13:00:25.297Z,103326.91
2023-01-26T13:03:22.578Z,103323.09
2023-01-26T13:06:26.121Z,103326.22
2023-01-26T13:09:24.868Z,103310.53
2023-01-26T13:12:48.277Z,103312.63
2023-01-26T13:15:37.515Z,103311.00
2023-01-26T13:18:50.649Z,103298.06
2023-01-26T13:21:46.006Z,103291.41
2023-01-26T13:24:47.245Z,103291.13
2023-01-26T13:27:48.215Z,103294.47
2023-01-26T13:30:47.446Z,103280.22
2023-01-26T13:33:36.671Z,103293.47
2023-01-26T13:36:26.223Z,103290.25
2023-01-26T13:39:30.283Z,103278.00
2023-01-26T13:42:28.997Z,103272.84
2023-01-26T13:45:35.131Z,103272.63
2023-01-26T13:48:49.792Z,103250.28
2023-01-26T13:51:44.315Z,103275.00
2023-01-26T13:54:34.151Z,103270.16
2023-01-26T13:57:25.899Z,103283.66
2023-01-26T14:00:17.155Z,103270.13
2023-01-26T14:03:19.420Z,103259.81
2023-01-26T14:06:13.220Z,103257.09
2023-01-26T14:09:04.183Z,103265.03
2023-01-26T14:12:01.199Z,103256.44
2023-01-26T14:14:52.854Z,103252.53
2023-01-26T14:17:51.891Z,103258.97
2023-01-26T14:20:43.549Z,103255.53
2023-01-26T14:23:37.194Z,103243.19
2023-01-26T14:26:33.163Z,103244.88
2023-01-26T14:29:25.446Z,103257.00
2023-01-26T14:32:18.317Z,103260.19
2023-01-26T14:35:23.515Z,103245.78
2023-01-26T14:38:20.031Z,103212.00
2023-01-26T14:41:17.397Z,103250.88
2023-01-26T14:44:07.636Z,103243.19
2023-01-26T14:47:03.270Z,103256.13
2023-01-26T14:49:59.839Z,103249.09
2023-01-26T14:52:49.438Z,103251.91
2023-01-26T14:55:40.201Z,103242.28
2023-01-26T14:58:33.466Z,103247.31
2023-01-26T15:01:25.234Z,103255.16
2023-01-26T15:04:26.122Z,103245.28
2023-01-26T15:07:39.004Z,103255.69
2023-01-26T15:10:39.006Z,103247.75
2023-01-26T15:13:32.975Z,103236.78
2023-01-26T15:16:24.378Z,103249.59
2023-01-26T15:19:24.709Z,103243.16
2023-01-26T15:22:25.715Z,103240.38
2023-01-26T15:25:21.711Z,103244.41
2023-01-26T15:28:19.902Z,103244.13
2023-01-26T15:31:21.672Z,103220.41
2023-01-26T15:34:32.013Z,103235.31
2023-01-26T15:37:32.207Z,103231.88
2023-01-26T15:40:21.453Z,103241.47
2023-01-26T15:43:15.093Z,103221.41
2023-01-26T15:46:04.910Z,103246.13
2023-01-26T15:48:56.031Z,103238.56
2023-01-26T15:51:45.235Z,103238.16
2023-01-26T15:54:34.517Z,103231.75
2023-01-26T15:57:23.965Z,103237.47
2023-01-26T16:00:15.695Z,103240.91
2023-01-26T16:03:13.949Z,103222.09
2023-01-26T16:06:04.767Z,103235.75
2023-01-26T16:08:54.911Z,103207.28
2023-01-26T16:11:49.592Z,103219.16
2023-01-26T16:14:38.804Z,103222.50
2023-01-26T16:17:28.361Z,103225.59
2023-01-26T16:20:18.358Z,103211.38
2023-01-26T16:23:19.434Z,103226.19
2023-01-26T16:26:12.064Z,103233.81
2023-01-26T16:29:01.441Z,103234.31
2023-01-26T16:31:50.828Z,103245.59
2023-01-26T16:34:40.055Z,103253.19
2023-01-26T16:37:29.374Z,103252.34
2023-01-26T16:40:20.781Z,103249.66
2023-01-26T16:43:19.648Z,103254.06
2023-01-26T16:46:09.645Z,103256.44
2023-01-26T16:48:59.351Z,103252.41
2023-01-26T16:51:49.020Z,103257.19
2023-01-26T16:54:38.496Z,103237.00
2023-01-26T16:57:29.598Z,103237.25
2023-01-26T17:00:21.338Z,103263.59
2023-01-26T17:03:13.206Z,103269.97
2023-01-26T17:06:02.730Z,103248.41
2023-01-26T17:08:58.203Z,103274.72
2023-01-26T17:11:47.461Z,103273.19
2023-01-26T17:14:38.365Z,103272.00
2023-01-26T17:17:27.597Z,103274.13
2023-01-26T17:20:19.662Z,103247.78
2023-01-26T17:23:09.950Z,103260.38
2023-01-26T17:26:00.071Z,103270.22
2023-01-26T17:28:51.671Z,103267.72
2023-01-26T17:31:42.702Z,103271.13
2023-01-26T17:34:32.279Z,103264.97
2023-01-26T17:37:22.497Z,103261.41
2023-01-26T17:40:14.090Z,103265.69
2023-01-26T17:43:03.443Z,103271.25
2023-01-26T17:45:55.920Z,103246.00
2023-01-26T17:48:47.748Z,103250.16
2023-01-26T17:51:40.188Z,103264.38
2023-01-26T17:54:29.563Z,103280.19
2023-01-26T17:57:18.811Z,103268.41
2023-01-26T18:00:12.107Z,103275.91
2023-01-26T18:03:01.853Z,103273.41
2023-01-26T18:05:57.469Z,103276.13
2023-01-26T18:08:46.987Z,103277.78
2023-01-26T18:11:44.522Z,103253.59
2023-01-26T18:14:33.885Z,103265.00
2023-01-26T18:17:23.287Z,103262.63
2023-01-26T18:20:15.161Z,103260.13
2023-01-26T18:23:05.898Z,103267.25
2023-01-26T18:25:55.192Z,103283.13
2023-01-26T18:28:45.474Z,103275.56
2023-01-26T18:31:36.999Z,103271.38
2023-01-26T18:34:26.521Z,103274.03
2023-01-26T18:37:16.178Z,103276.84
2023-01-26T18:40:08.435Z,103281.59
2023-01-26T18:42:58.585Z,103270.47
2023-01-26T18:45:47.991Z,103271.88
2023-01-26T18:48:37.817Z,103265.94
2023-01-26T18:51:27.583Z,103244.94
2023-01-26T18:54:20.188Z,103241.53
2023-01-26T18:57:10.868Z,103238.31
2023-01-26T19:00:00.121Z,103267.72
2023-01-26T19:02:49.408Z,103271.50
2023-01-26T19:05:38.710Z,103268.19
2023-01-26T19:08:27.990Z,103264.88
2023-01-26T19:11:17.204Z,103252.31
2023-01-26T19:14:09.420Z,103253.13
2023-01-26T19:16:58.819Z,103258.59
2023-01-26T19:19:48.238Z,103259.28
2023-01-26T19:22:37.468Z,103260.75
2023-01-26T19:25:27.788Z,103258.34
2023-01-26T19:28:17.445Z,103261.41
2023-01-26T19:31:09.524Z,103253.47
2023-01-26T19:34:01.044Z,103239.72
2023-01-26T19:36:50.885Z,103249.44
2023-01-26T19:39:40.056Z,103254.44
2023-01-26T19:42:29.532Z,103258.59
2023-01-26T19:45:18.737Z,103260.84
2023-01-26T19:48:09.509Z,103253.28
2023-01-26T19:51:02.900Z,103251.13
2023-01-26T19:53:55.521Z,103242.22
2023-01-26T19:56:44.760Z,103243.19
2023-01-26T19:59:34.223Z,103253.16
2023-01-26T20:02:23.452Z,103252.31
2023-01-26T20:05:14.287Z,103238.91
2023-01-26T20:08:03.775Z,103257.19
2023-01-26T20:10:53.194Z,103265.47
2023-01-26T20:13:42.623Z,103263.34
2023-01-26T20:16:32.121Z,103261.56
2023-01-26T20:19:21.508Z,103256.69
2023-01-26T20:22:12.356Z,103262.16
2023-01-26T20:25:01.950Z,103259.91
2023-01-26T20:27:51.275Z,103261.31
2023-01-26T20:30:41.279Z,103266.31
2023-01-26T20:33:30.648Z,103269.28
2023-01-26T20:36:22.834Z,103272.47
2023-01-26T20:39:24.093Z,103279.00
2023-01-26T20:42:16.658Z,103279.81
2023-01-26T20:45:06.506Z,103271.41
2023-01-26T20:47:55.805Z,103255.97
2023-01-26T20:50:45.084Z,103268.81
2023-01-26T20:53:34.246Z,103281.13
2023-01-26T20:56:25.618Z,103282.06
2023-01-26T20:59:14.970Z,103276.38
2023-01-26T21:02:04.353Z,103265.94
2023-01-26T21:04:54.339Z,103267.34
2023-01-26T21:07:43.828Z,103260.97
2023-01-26T21:10:33.151Z,103267.84
2023-01-26T21:13:23.959Z,103263.22
2023-01-26T21:16:16.674Z,103270.91
2023-01-26T21:19:05.916Z,103277.00
2023-01-26T21:21:55.083Z,103270.19
2023-01-26T21:24:44.257Z,103275.78
2023-01-26T21:27:33.521Z,103276.63
2023-01-26T21:30:24.105Z,103267.59
2023-01-26T21:33:13.819Z,103274.22
2023-01-26T21:36:05.703Z,103264.75
2023-01-26T21:38:58.341Z,103271.97
2023-01-26T21:42:00.797Z,103280.41
2023-01-26T21:45:06.974Z,103263.75
2023-01-26T21:48:14.876Z,103259.97
2023-01-26T21:51:22.188Z,103270.53
2023-01-26T21:54:11.912Z,103270.19
2023-01-26T21:57:02.221Z,103264.75
2023-01-26T21:59:50.578Z,103267.47
2023-01-26T22:02:39.818Z,103263.69
2023-01-26T22:05:30.439Z,103250.84
2023-01-26T22:08:19.616Z,103265.81
2023-01-26T22:11:09.007Z,103263.81
2023-01-26T22:13:58.653Z,103265.47
2023-01-26T22:16:49.663Z,103255.88
2023-01-26T22:19:38.990Z,103251.44
2023-01-26T22:22:29.880Z,103258.44
2023-01-26T22:25:19.183Z,103249.44
2023-01-26T22:28:09.447Z,103262.69
2023-01-26T22:31:03.166Z,103243.50
2023-01-26T22:33:52.646Z,103249.06
2023-01-26T22:36:41.869Z,103244.44
2023-01-26T22:39:32.473Z,103256.06
2023-01-26T22:42:23.371Z,103252.50
2023-01-26T22:45:13.994Z,103237.81
2023-01-26T22:48:03.275Z,103248.13
2023-01-26T22:50:52.487Z,103255.47
2023-01-26T22:53:42.082Z,103242.41
2023-01-26T22:56:32.789Z,103181.03
2023-01-26T22:59:22.028Z,103248.72
2023-01-26T23:02:11.413Z,103241.56
2023-01-26T23:05:01.039Z,103245.34
2023-01-26T23:07:50.622Z,103247.50
2023-01-26T23:10:40.140Z,103217.44
2023-01-26T23:13:31.233Z,103206.88
2023-01-26T23:16:21.394Z,103226.69
2023-01-26T23:19:10.789Z,103228.13
2023-01-26T23:22:01.343Z,103224.22
2023-01-26T23:25:11.035Z,103228.19
2023-01-26T23:28:04.370Z,103241.22
2023-01-26T23:30:56.895Z,103237.22
2023-01-26T23:33:46.630Z,103230.69
2023-01-26T23:36:35.893Z,103219.13
2023-01-26T23:39:25.057Z,103230.84
2023-01-26T23:42:15.825Z,103229.50
2023-01-26T23:45:05.861Z,103233.75
2023-01-26T23:47:56.590Z,103217.34
2023-01-26T23:50:46.092Z,103224.06
2023-01-26T23:53:35.946Z,103210.19
2023-01-26T23:56:25.148Z,103220.84
2023-01-26T23:59:14.527Z,103225.13
